Time;durP1;ratioP1;P1;durP2;ratioP2;P2;SDS_P1;SDS_P2;PMS_P1;PMS_P2;Temp;Humidity;BMP_temperature;BMP_pressure;BME280_temperature;BME280_humidity;BME280_pressure;Samples;Min_cycle;Max_cycle;Signal;HPM_P1;HPM_P2
2021/09/01 00:00:10;;;;;;;15.00;5.57;;;;;;;;;;4973642;28;20046;-66
2021/09/01 00:03:16;;;;;;;11.20;4.75;;;;;;;;;;4973874;28;20046;-66
2021/09/01 00:06:20;;;;;;;9.02;4.82;;;;;;;;;;4973646;28;20047;-66
2021/09/01 00:09:25;;;;;;;14.68;5.47;;;;;;;;;;4973432;28;20034;-66
2021/09/01 00:12:29;;;;;;;9.98;4.82;;;;;;;;;;4973523;28;20375;-66
2021/09/01 00:15:34;;;;;;;11.32;5.13;;;;;;;;;;4972710;28;20038;-66
2021/09/01 00:18:38;;;;;;;9.45;4.68;;;;;;;;;;4973238;28;20394;-67
2021/09/01 00:21:42;;;;;;;7.45;4.10;;;;;;;;;;4990168;28;20053;-66
2021/09/01 00:24:46;;;;;;;11.63;4.68;;;;;;;;;;5012625;28;20045;-67
2021/09/01 00:27:52;;;;;;;8.35;4.32;;;;;;;;;;5012219;28;20046;-66
2021/09/01 00:30:56;;;;;;;12.80;4.57;;;;;;;;;;5012171;28;20046;-66
2021/09/01 00:34:01;;;;;;;9.25;4.38;;;;;;;;;;5012019;28;20051;-66
2021/09/01 00:37:05;;;;;;;10.90;4.10;;;;;;;;;;5012083;28;20042;-66
2021/09/01 00:40:10;;;;;;;11.77;4.25;;;;;;;;;;5011656;28;20034;-67
2021/09/01 00:43:14;;;;;;;10.82;4.38;;;;;;;;;;4999821;28;20034;-66
2021/09/01 00:46:18;;;;;;;12.13;4.40;;;;;;;;;;5011963;28;20057;-67
2021/09/01 00:49:23;;;;;;;12.55;4.25;;;;;;;;;;5012087;28;20042;-66
2021/09/01 00:52:28;;;;;;;9.07;5.40;;;;;;;;;;5011818;28;20042;-66
2021/09/01 00:55:32;;;;;;;12.70;5.20;;;;;;;;;;5011948;28;20046;-66
2021/09/01 00:58:37;;;;;;;10.18;5.22;;;;;;;;;;5011847;28;20041;-67
2021/09/01 01:01:49;;;;;;;12.95;5.70;;;;;;;;;;5011781;28;20045;-66
2021/09/01 01:04:55;;;;;;;8.95;5.18;;;;;;;;;;5011555;28;20037;-66
2021/09/01 01:07:59;;;;;;;11.40;4.75;;;;;;;;;;5011968;28;20378;-65
2021/09/01 01:11:04;;;;;;;13.55;6.30;;;;;;;;;;5014462;28;20042;-64
2021/09/01 01:14:08;;;;;;;9.63;5.05;;;;;;;;;;5021694;28;20141;-65
2021/09/01 01:17:14;;;;;;;9.00;5.32;;;;;;;;;;5020864;28;20494;-65
2021/09/01 01:20:18;;;;;;;8.68;5.22;;;;;;;;;;5021333;28;20034;-66
2021/09/01 01:23:23;;;;;;;10.27;5.05;;;;;;;;;;5022076;28;20049;-66
2021/09/01 01:26:30;;;;;;;15.25;5.90;;;;;;;;;;5020481;28;20057;-66
2021/09/01 01:29:34;;;;;;;9.35;5.75;;;;;;;;;;5011801;28;20052;-66
2021/09/01 01:32:39;;;;;;;8.35;5.45;;;;;;;;;;5011156;28;20041;-66
2021/09/01 01:35:45;;;;;;;12.15;6.15;;;;;;;;;;5011272;28;20034;-66
2021/09/01 01:38:49;;;;;;;12.90;5.60;;;;;;;;;;5011208;28;20050;-66
2021/09/01 01:41:53;;;;;;;16.27;5.90;;;;;;;;;;5011116;28;20037;-66
2021/09/01 01:45:01;;;;;;;15.50;5.63;;;;;;;;;;5011168;28;20041;-67
2021/09/01 01:48:06;;;;;;;11.80;5.40;;;;;;;;;;5011144;28;20049;-66
2021/09/01 01:51:10;;;;;;;16.58;5.63;;;;;;;;;;5011024;28;20044;-67
2021/09/01 01:54:15;;;;;;;15.10;6.32;;;;;;;;;;5011299;28;20508;-66
2021/09/01 01:57:19;;;;;;;15.27;6.43;;;;;;;;;;5011186;28;20393;-66
2021/09/01 02:00:23;;;;;;;12.40;6.18;;;;;;;;;;5010903;28;20037;-66
2021/09/01 02:03:28;;;;;;;11.13;5.72;;;;;;;;;;5010996;28;20637;-66
2021/09/01 02:06:32;;;;;;;13.82;6.05;;;;;;;;;;5011070;28;20417;-66
2021/09/01 02:09:36;;;;;;;16.73;6.78;;;;;;;;;;5010927;28;20516;-66
2021/09/01 02:12:41;;;;;;;11.02;5.47;;;;;;;;;;5010840;28;20489;-67
2021/09/01 02:15:48;;;;;;;12.75;6.28;;;;;;;;;;5010816;28;20037;-65
2021/09/01 02:18:52;;;;;;;14.43;7.05;;;;;;;;;;5010675;28;20040;-66
2021/09/01 02:21:57;;;;;;;10.13;5.30;;;;;;;;;;5010544;28;20065;-66
2021/09/01 02:25:04;;;;;;;11.23;5.40;;;;;;;;;;5010951;28;20046;-65
2021/09/01 02:28:08;;;;;;;14.57;6.22;;;;;;;;;;5010655;28;20057;-65
2021/09/01 02:31:13;;;;;;;10.20;5.97;;;;;;;;;;5010730;28;20632;-65
2021/09/01 02:34:17;;;;;;;14.70;5.80;;;;;;;;;;5010785;28;20037;-65
2021/09/01 02:37:21;;;;;;;15.15;6.10;;;;;;;;;;5010925;28;20049;-65
2021/09/01 02:40:26;;;;;;;12.27;5.68;;;;;;;;;;5014012;28;20439;-65
2021/09/01 02:43:30;;;;;;;11.52;5.68;;;;;;;;;;5014266;28;20045;-66
2021/09/01 02:46:35;;;;;;;10.10;5.90;;;;;;;;;;5014113;28;20113;-66
2021/09/01 02:49:39;;;;;;;14.57;6.03;;;;;;;;;;5014140;28;20049;-66
2021/09/01 02:52:43;;;;;;;13.05;5.47;;;;;;;;;;5014101;28;20045;-66
2021/09/01 02:55:47;;;;;;;11.68;5.28;;;;;;;;;;5013934;28;20109;-66
2021/09/01 02:58:52;;;;;;;12.52;5.20;;;;;;;;;;5013922;28;20497;-65
2021/09/01 03:01:56;;;;;;;12.43;5.47;;;;;;;;;;5013637;28;20061;-66
2021/09/01 03:05:00;;;;;;;7.43;5.00;;;;;;;;;;5013859;28;20045;-66
2021/09/01 03:08:06;;;;;;;10.02;5.15;;;;;;;;;;5013795;28;20049;-66
2021/09/01 03:11:10;;;;;;;16.60;5.30;;;;;;;;;;5013501;28;20045;-66
2021/09/01 03:14:15;;;;;;;11.77;5.45;;;;;;;;;;5013581;28;20068;-66
2021/09/01 03:17:19;;;;;;;10.23;5.13;;;;;;;;;;5013517;28;20045;-66
2021/09/01 03:20:23;;;;;;;13.27;5.03;;;;;;;;;;5013356;28;20047;-66
2021/09/01 03:23:27;;;;;;;12.80;4.72;;;;;;;;;;5013196;28;20053;-66
2021/09/01 03:26:33;;;;;;;13.35;4.80;;;;;;;;;;5013380;28;20052;-66
2021/09/01 03:29:37;;;;;;;9.15;4.65;;;;;;;;;;5013161;28;20389;-66
2021/09/01 03:32:41;;;;;;;13.38;5.72;;;;;;;;;;5013167;28;20038;-66
2021/09/01 03:35:45;;;;;;;11.13;5.68;;;;;;;;;;5013097;28;20045;-66
2021/09/01 03:38:49;;;;;;;9.18;5.75;;;;;;;;;;5013249;28;20045;-66
2021/09/01 03:41:54;;;;;;;14.07;6.82;;;;;;;;;;5013092;28;20038;-66
2021/09/01 03:44:58;;;;;;;13.27;6.45;;;;;;;;;;5013003;28;20496;-66
2021/09/01 03:48:02;;;;;;;13.18;7.53;;;;;;;;;;5012760;28;20070;-66
2021/09/01 03:51:07;;;;;;;14.27;7.55;;;;;;;;;;5012810;28;20045;-66
2021/09/01 03:54:12;;;;;;;14.35;7.18;;;;;;;;;;5012824;28;20605;-66
2021/09/01 03:57:16;;;;;;;14.68;7.35;;;;;;;;;;5012664;28;20033;-66
2021/09/01 04:00:20;;;;;;;16.60;8.25;;;;;;;;;;5012460;28;20060;-66
2021/09/01 04:03:24;;;;;;;21.58;9.77;;;;;;;;;;5012800;28;20505;-66
2021/09/01 04:06:29;;;;;;;21.00;9.02;;;;;;;;;;5012417;28;20042;-65
2021/09/01 04:09:33;;;;;;;17.33;8.88;;;;;;;;;;5012311;28;20508;-65
2021/09/01 04:12:37;;;;;;;13.68;6.93;;;;;;;;;;5012769;28;20057;-66
2021/09/01 04:15:42;;;;;;;18.00;7.00;;;;;;;;;;5012421;28;20049;-65
2021/09/01 04:18:46;;;;;;;14.30;6.45;;;;;;;;;;5012330;28;20048;-66
2021/09/01 04:21:50;;;;;;;10.82;5.65;;;;;;;;;;5012064;28;20426;-66
2021/09/01 04:24:55;;;;;;;23.95;10.68;;;;;;;;;;5012185;28;20524;-66
2021/09/01 04:27:59;;;;;;;53.08;32.75;;;;;;;;;;5012167;28;20049;-66
2021/09/01 04:31:03;;;;;;;34.33;19.35;;;;;;;;;;5012132;28;20113;-66
2021/09/01 04:34:08;;;;;;;83.10;50.15;;;;;;;;;;5011952;28;20045;-66
2021/09/01 04:37:12;;;;;;;84.07;49.03;;;;;;;;;;5012429;28;20065;-66
2021/09/01 04:40:17;;;;;;;76.25;43.78;;;;;;;;;;5011911;28;20053;-66
2021/09/01 04:43:21;;;;;;;57.85;27.77;;;;;;;;;;5011809;28;20045;-66
2021/09/01 04:46:26;;;;;;;28.02;13.75;;;;;;;;;;5011939;28;20041;-66
2021/09/01 04:49:30;;;;;;;15.75;7.20;;;;;;;;;;5011781;28;20049;-66
2021/09/01 04:52:34;;;;;;;15.95;7.28;;;;;;;;;;5011715;28;20044;-66
2021/09/01 04:55:39;;;;;;;14.50;7.35;;;;;;;;;;5011898;28;20045;-65
2021/09/01 04:58:43;;;;;;;22.20;7.40;;;;;;;;;;5011397;28;20508;-65
2021/09/01 05:01:47;;;;;;;17.85;7.00;;;;;;;;;;5011202;28;20525;-66
2021/09/01 05:04:52;;;;;;;17.98;7.40;;;;;;;;;;5011912;28;20048;-66
2021/09/01 05:07:56;;;;;;;20.17;9.40;;;;;;;;;;5011290;28;20064;-66
2021/09/01 05:11:00;;;;;;;37.47;12.52;;;;;;;;;;5011362;28;20041;-66
2021/09/01 05:14:05;;;;;;;227.45;97.35;;;;;;;;;;5011715;28;20509;-66
2021/09/01 05:17:09;;;;;;;180.45;78.65;;;;;;;;;;5011355;28;20394;-66
2021/09/01 05:20:14;;;;;;;68.70;30.60;;;;;;;;;;5011617;28;20052;-65
2021/09/01 05:23:18;;;;;;;50.05;24.58;;;;;;;;;;5011170;28;20053;-64
2021/09/01 05:26:24;;;;;;;39.50;17.27;;;;;;;;;;5015596;28;20061;-65
2021/09/01 05:29:28;;;;;;;29.77;15.13;;;;;;;;;;5011079;28;20117;-65
2021/09/01 05:32:35;;;;;;;31.77;15.00;;;;;;;;;;5011430;28;20056;-65
2021/09/01 05:35:40;;;;;;;41.30;17.95;;;;;;;;;;5011315;28;20040;-65
2021/09/01 05:38:46;;;;;;;40.78;17.77;;;;;;;;;;5011165;28;20048;-65
2021/09/01 05:41:53;;;;;;;46.28;19.85;;;;;;;;;;5011095;28;20394;-65
2021/09/01 05:44:57;;;;;;;42.40;17.73;;;;;;;;;;5011179;28;20061;-65
2021/09/01 05:48:02;;;;;;;32.33;15.60;;;;;;;;;;5011019;28;20433;-65
2021/09/01 05:51:07;;;;;;;48.03;20.17;;;;;;;;;;5011107;28;20049;-65
2021/09/01 05:54:12;;;;;;;37.30;15.57;;;;;;;;;;5011213;28;20049;-65
2021/09/01 05:57:20;;;;;;;28.58;13.30;;;;;;;;;;5011140;28;20394;-65
2021/09/01 06:00:24;;;;;;;24.92;12.35;;;;;;;;;;5009323;28;20042;-65
2021/09/01 06:03:31;;;;;;;28.25;11.10;;;;;;;;;;5010815;28;20044;-65
2021/09/01 06:06:38;;;;;;;27.10;11.10;;;;;;;;;;5010795;28;20064;-65
2021/09/01 06:09:44;;;;;;;22.95;9.90;;;;;;;;;;5010618;28;20061;-65
2021/09/01 06:12:52;;;;;;;24.10;9.82;;;;;;;;;;5010747;28;20040;-65
2021/09/01 06:15:56;;;;;;;22.60;8.52;;;;;;;;;;5014683;28;20048;-66
2021/09/01 06:19:00;;;;;;;23.75;8.70;;;;;;;;;;5014576;28;20041;-66
2021/09/01 06:22:06;;;;;;;13.75;6.90;;;;;;;;;;5014276;28;20052;-65
2021/09/01 06:25:10;;;;;;;17.67;7.50;;;;;;;;;;5014315;28;20061;-67
2021/09/01 06:28:14;;;;;;;17.33;7.25;;;;;;;;;;5013999;28;20053;-66
2021/09/01 06:31:19;;;;;;;14.27;6.40;;;;;;;;;;5014284;28;20049;-66
2021/09/01 06:34:23;;;;;;;13.02;6.28;;;;;;;;;;5013523;28;20057;-66
2021/09/01 06:37:27;;;;;;;26.88;8.23;;;;;;;;;;5014191;28;20057;-67
2021/09/01 06:40:32;;;;;;;16.05;6.22;;;;;;;;;;5014062;28;20049;-66
2021/09/01 06:43:36;;;;;;;14.45;5.55;;;;;;;;;;5014228;28;20049;-65
2021/09/01 06:46:41;;;;;;;13.70;5.78;;;;;;;;;;5001802;28;20414;-67
2021/09/01 06:49:45;;;;;;;14.57;5.60;;;;;;;;;;5013818;28;20049;-66
2021/09/01 06:52:49;;;;;;;11.55;4.78;;;;;;;;;;5013975;28;20049;-68
2021/09/01 06:55:54;;;;;;;14.15;5.10;;;;;;;;;;5013875;28;20049;-67
2021/09/01 06:58:58;;;;;;;15.90;5.07;;;;;;;;;;5013851;28;20049;-68
2021/09/01 07:02:03;;;;;;;13.52;4.50;;;;;;;;;;5013877;28;20049;-67
2021/09/01 07:05:08;;;;;;;13.68;4.75;;;;;;;;;;5012900;28;20048;-70
2021/09/01 07:08:16;;;;;;;13.00;5.20;;;;;;;;;;5012469;28;20075;-68
2021/09/01 07:11:21;;;;;;;12.32;4.90;;;;;;;;;;5013508;28;20045;-66
2021/09/01 07:14:25;;;;;;;17.98;5.97;;;;;;;;;;5013692;28;20041;-67
2021/09/01 07:17:29;;;;;;;12.43;4.85;;;;;;;;;;5013452;28;20041;-66
2021/09/01 07:20:34;;;;;;;29.08;6.50;;;;;;;;;;5013203;28;20049;-66
2021/09/01 07:23:39;;;;;;;20.02;5.60;;;;;;;;;;5013406;28;20053;-66
2021/09/01 07:26:43;;;;;;;28.42;6.07;;;;;;;;;;5013079;28;20048;-64
2021/09/01 07:29:47;;;;;;;14.90;5.18;;;;;;;;;;5013223;28;20040;-66
2021/09/01 07:32:51;;;;;;;31.30;6.72;;;;;;;;;;5013059;28;20045;-66
2021/09/01 07:35:56;;;;;;;24.75;7.00;;;;;;;;;;5013003;28;20559;-67
2021/09/01 07:39:03;;;;;;;23.05;6.22;;;;;;;;;;5012849;28;20040;-67
2021/09/01 07:42:08;;;;;;;20.08;5.75;;;;;;;;;;5011921;28;20049;-66
2021/09/01 07:45:13;;;;;;;32.20;6.18;;;;;;;;;;5012734;28;20508;-66
2021/09/01 07:48:17;;;;;;;22.33;6.05;;;;;;;;;;5000866;28;20068;-64
2021/09/01 07:51:21;;;;;;;20.08;5.03;;;;;;;;;;5012758;28;20037;-65
2021/09/01 07:54:25;;;;;;;12.82;3.38;;;;;;;;;;5012797;28;20045;-65
2021/09/01 07:57:30;;;;;;;34.95;6.60;;;;;;;;;;5000779;28;20037;-65
2021/09/01 08:00:34;;;;;;;35.28;6.25;;;;;;;;;;5012650;28;20045;-65
2021/09/01 08:03:38;;;;;;;13.50;3.88;;;;;;;;;;5012622;28;20065;-64
2021/09/01 08:06:43;;;;;;;17.58;4.00;;;;;;;;;;5012190;28;20049;-66
2021/09/01 08:09:47;;;;;;;19.92;4.20;;;;;;;;;;5011268;28;20373;-65
2021/09/01 08:12:52;;;;;;;11.80;3.88;;;;;;;;;;5011236;28;20056;-65
2021/09/01 08:15:56;;;;;;;13.18;3.92;;;;;;;;;;5011330;28;20065;-65
2021/09/01 08:19:00;;;;;;;17.05;3.80;;;;;;;;;;5012066;28;20048;-65
2021/09/01 08:22:04;;;;;;;19.73;4.18;;;;;;;;;;5012128;28;20413;-65
2021/09/01 08:25:09;;;;;;;10.95;4.13;;;;;;;;;;5000198;28;20044;-64
2021/09/01 08:28:14;;;;;;;17.33;3.88;;;;;;;;;;5012074;28;20057;-65
2021/09/01 08:31:18;;;;;;;21.77;3.95;;;;;;;;;;5012192;28;20501;-64
2021/09/01 08:34:22;;;;;;;13.52;5.90;;;;;;;;;;5011824;28;20053;-63
2021/09/01 08:37:27;;;;;;;13.77;3.38;;;;;;;;;;5011523;28;20064;-66
2021/09/01 08:40:32;;;;;;;8.48;3.13;;;;;;;;;;5011877;28;20048;-66
2021/09/01 08:43:37;;;;;;;10.38;4.55;;;;;;;;;;5012202;28;20521;-64
2021/09/01 08:46:43;;;;;;;13.50;3.50;;;;;;;;;;5011962;28;20045;-64
2021/09/01 08:49:47;;;;;;;28.88;4.43;;;;;;;;;;5011921;28;20057;-66
2021/09/01 08:52:51;;;;;;;12.00;3.90;;;;;;;;;;5012390;28;20037;-65
2021/09/01 08:55:58;;;;;;;13.25;3.33;;;;;;;;;;5012077;28;20045;-66
2021/09/01 08:59:02;;;;;;;11.85;3.08;;;;;;;;;;5011730;28;20053;-65
2021/09/01 09:02:07;;;;;;;10.93;3.15;;;;;;;;;;5011776;28;20065;-66
2021/09/01 09:05:11;;;;;;;8.00;2.92;;;;;;;;;;5011634;28;20041;-64
2021/09/01 09:08:16;;;;;;;13.70;3.10;;;;;;;;;;5011117;28;20046;-65
2021/09/01 09:11:33;;;;;;;14.77;3.45;;;;;;;;;;5011310;28;20045;-66
2021/09/01 09:14:41;;;;;;;14.57;2.75;;;;;;;;;;5011454;28;20405;-64
2021/09/01 09:17:46;;;;;;;8.23;3.35;;;;;;;;;;5011603;28;20500;-64
2021/09/01 09:20:50;;;;;;;6.22;2.45;;;;;;;;;;5010896;28;20442;-64
2021/09/01 09:23:55;;;;;;;7.63;2.63;;;;;;;;;;5011011;28;20049;-65
2021/09/01 09:27:02;;;;;;;10.65;2.58;;;;;;;;;;5011342;28;20054;-64
2021/09/01 09:30:22;;;;;;;9.85;2.70;;;;;;;;;;4999153;28;20049;-65
2021/09/01 09:33:26;;;;;;;13.85;2.75;;;;;;;;;;5010965;28;20045;-64
2021/09/01 09:36:30;;;;;;;9.52;2.42;;;;;;;;;;5011017;28;20061;-65
2021/09/01 09:39:39;;;;;;;9.18;2.80;;;;;;;;;;5011062;28;20057;-64
2021/09/01 09:42:46;;;;;;;12.13;2.65;;;;;;;;;;5010883;28;20038;-63
2021/09/01 09:46:00;;;;;;;6.95;2.53;;;;;;;;;;5011180;28;20517;-65
2021/09/01 09:49:06;;;;;;;7.25;2.22;;;;;;;;;;5014498;28;20049;-65
2021/09/01 09:52:14;;;;;;;7.13;2.50;;;;;;;;;;5015514;28;20485;-64
2021/09/01 09:55:20;;;;;;;4.85;2.63;;;;;;;;;;5015210;28;20037;-65
2021/09/01 09:58:24;;;;;;;6.82;2.78;;;;;;;;;;5015092;28;20065;-64
2021/09/01 10:01:29;;;;;;;9.88;2.83;;;;;;;;;;5014714;28;20041;-66
2021/09/01 10:04:33;;;;;;;4.50;2.35;;;;;;;;;;5014941;28;20037;-65
2021/09/01 10:07:38;;;;;;;5.22;2.42;;;;;;;;;;5014847;28;20042;-65
2021/09/01 10:10:43;;;;;;;8.30;2.78;;;;;;;;;;5014845;28;20046;-65
2021/09/01 10:13:49;;;;;;;7.63;2.67;;;;;;;;;;5015077;28;20042;-66
2021/09/01 10:17:05;;;;;;;6.95;2.60;;;;;;;;;;5015055;28;20038;-67
2021/09/01 10:20:10;;;;;;;10.65;3.05;;;;;;;;;;5014340;28;20038;-64
2021/09/01 10:23:15;;;;;;;7.32;2.90;;;;;;;;;;4975260;28;20058;-65
2021/09/01 10:26:37;;;;;;;6.38;2.63;;;;;;;;;;4974974;28;20043;-65
2021/09/01 10:29:50;;;;;;;7.65;2.60;;;;;;;;;;4975627;28;20560;-64
2021/09/01 10:32:54;;;;;;;17.33;3.20;;;;;;;;;;4975632;28;20038;-65
2021/09/01 10:35:59;;;;;;;5.40;2.88;;;;;;;;;;4974517;28;20041;-65
2021/09/01 10:39:06;;;;;;;11.07;2.70;;;;;;;;;;4975512;28;20043;-64
2021/09/01 10:42:29;;;;;;;6.57;2.28;;;;;;;;;;4975283;28;20506;-64
2021/09/01 10:45:33;;;;;;;6.85;2.53;;;;;;;;;;4975473;28;20047;-66
2021/09/01 10:48:59;;;;;;;6.95;3.20;;;;;;;;;;4975177;28;20050;-65
2021/09/01 10:52:04;;;;;;;7.95;3.13;;;;;;;;;;4975331;28;20475;-65
2021/09/01 10:55:10;;;;;;;8.93;2.90;;;;;;;;;;4975280;28;20043;-64
2021/09/01 10:58:17;;;;;;;5.43;2.63;;;;;;;;;;4974749;28;20038;-64
2021/09/01 11:01:23;;;;;;;9.38;2.97;;;;;;;;;;4974032;28;20039;-65
2021/09/01 11:04:29;;;;;;;9.95;3.50;;;;;;;;;;4975242;28;20047;-65
2021/09/01 11:07:33;;;;;;;8.80;3.40;;;;;;;;;;4974429;28;20054;-65
2021/09/01 11:10:37;;;;;;;19.85;3.42;;;;;;;;;;4973862;28;20376;-65
2021/09/01 11:13:42;;;;;;;8.52;3.08;;;;;;;;;;4974607;28;20042;-64
2021/09/01 11:16:51;;;;;;;7.30;3.13;;;;;;;;;;4974693;28;20038;-65
2021/09/01 11:19:58;;;;;;;10.82;3.35;;;;;;;;;;4974371;28;20043;-65
2021/09/01 11:23:02;;;;;;;10.98;3.15;;;;;;;;;;5012874;28;20076;-63
2021/09/01 11:26:08;;;;;;;8.35;3.30;;;;;;;;;;5013697;28;20049;-63
2021/09/01 11:29:13;;;;;;;12.63;3.72;;;;;;;;;;5013305;28;20042;-64
2021/09/01 11:32:19;;;;;;;11.13;3.33;;;;;;;;;;5013426;28;20048;-64
2021/09/01 11:35:28;;;;;;;10.43;4.07;;;;;;;;;;5013327;28;20048;-63
2021/09/01 11:38:32;;;;;;;14.80;4.50;;;;;;;;;;5013293;28;20045;-64
2021/09/01 11:41:39;;;;;;;14.90;4.25;;;;;;;;;;5001163;28;20041;-64
2021/09/01 11:44:43;;;;;;;13.60;4.00;;;;;;;;;;5013174;28;20045;-64
2021/09/01 11:47:48;;;;;;;12.57;3.90;;;;;;;;;;5012850;28;20057;-64
2021/09/01 11:50:52;;;;;;;8.93;3.40;;;;;;;;;;5012865;28;20045;-63
2021/09/01 11:53:58;;;;;;;18.02;4.28;;;;;;;;;;5012865;28;20046;-64
2021/09/01 11:57:02;;;;;;;10.18;4.00;;;;;;;;;;5012809;28;20045;-64
2021/09/01 12:00:07;;;;;;;9.27;4.10;;;;;;;;;;5012769;28;20533;-64
2021/09/01 12:03:16;;;;;;;13.13;3.80;;;;;;;;;;5012860;28;20033;-64
2021/09/01 12:06:21;;;;;;;7.13;3.35;;;;;;;;;;5012429;28;20500;-64
2021/09/01 12:09:27;;;;;;;8.25;3.70;;;;;;;;;;5012606;28;20045;-64
2021/09/01 12:12:38;;;;;;;10.73;3.78;;;;;;;;;;5011671;28;20042;-64
2021/09/01 12:15:56;;;;;;;11.93;3.72;;;;;;;;;;5012446;28;20549;-63
2021/09/01 12:19:10;;;;;;;15.38;4.07;;;;;;;;;;5012562;28;20037;-63
2021/09/01 12:22:27;;;;;;;11.45;4.63;;;;;;;;;;5011984;28;20069;-63
2021/09/01 12:25:31;;;;;;;8.63;3.45;;;;;;;;;;5012216;28;20049;-63
2021/09/01 12:28:43;;;;;;;8.35;3.50;;;;;;;;;;4999700;28;20046;-63
2021/09/01 12:31:51;;;;;;;6.93;3.65;;;;;;;;;;5012383;28;20033;-63
2021/09/01 12:34:57;;;;;;;8.95;3.75;;;;;;;;;;5012351;28;20049;-63
2021/09/01 12:38:03;;;;;;;10.40;3.90;;;;;;;;;;5012098;28;20038;-63
2021/09/01 12:41:24;;;;;;;12.30;4.07;;;;;;;;;;5011963;28;20045;-62
2021/09/01 12:44:44;;;;;;;11.32;3.42;;;;;;;;;;5012258;28;20037;-63
2021/09/01 12:47:55;;;;;;;8.00;3.42;;;;;;;;;;5011841;28;20417;-65
2021/09/01 12:51:01;;;;;;;7.72;3.70;;;;;;;;;;5000095;28;20042;-65
2021/09/01 12:54:05;;;;;;;9.18;4.00;;;;;;;;;;5011993;28;20034;-66
2021/09/01 12:57:10;;;;;;;7.72;3.20;;;;;;;;;;5011541;28;20046;-63
2021/09/01 13:00:15;;;;;;;9.85;3.60;;;;;;;;;;5011640;28;20347;-63
2021/09/01 13:03:19;;;;;;;15.45;3.80;;;;;;;;;;5011880;28;20046;-64
2021/09/01 13:06:23;;;;;;;16.13;4.03;;;;;;;;;;5011710;28;20037;-63
2021/09/01 13:09:28;;;;;;;9.00;4.30;;;;;;;;;;5011691;28;20056;-64
2021/09/01 13:12:32;;;;;;;10.80;3.65;;;;;;;;;;5011589;28;20038;-63
2021/09/01 13:15:36;;;;;;;14.32;4.25;;;;;;;;;;5011608;28;20045;-64
2021/09/01 13:18:42;;;;;;;10.43;3.42;;;;;;;;;;5011361;28;20106;-64
2021/09/01 13:21:47;;;;;;;8.77;3.97;;;;;;;;;;5010801;28;20061;-63
2021/09/01 13:24:52;;;;;;;9.55;4.22;;;;;;;;;;5011186;28;20501;-65
2021/09/01 13:27:56;;;;;;;8.60;4.00;;;;;;;;;;5011230;28;20049;-64
2021/09/01 13:31:01;;;;;;;14.90;5.07;;;;;;;;;;5011371;28;20374;-64
2021/09/01 13:34:05;;;;;;;7.65;3.72;;;;;;;;;;5011496;28;20045;-64
2021/09/01 13:37:09;;;;;;;11.70;4.72;;;;;;;;;;5011267;28;20045;-64
2021/09/01 13:40:14;;;;;;;7.60;3.53;;;;;;;;;;5011199;28;20044;-64
2021/09/01 13:43:18;;;;;;;5.25;3.28;;;;;;;;;;5011184;28;20045;-64
2021/09/01 13:46:23;;;;;;;18.45;3.85;;;;;;;;;;5011105;28;20038;-63
2021/09/01 13:49:27;;;;;;;6.72;3.60;;;;;;;;;;5011050;28;20057;-65
2021/09/01 13:52:33;;;;;;;10.88;3.45;;;;;;;;;;5011226;28;20042;-66
2021/09/01 13:55:38;;;;;;;9.18;3.85;;;;;;;;;;5011265;28;20045;-68
2021/09/01 13:58:42;;;;;;;7.43;3.78;;;;;;;;;;4998496;28;20038;-66
2021/09/01 14:01:47;;;;;;;8.90;3.70;;;;;;;;;;5010914;28;20041;-69
2021/09/01 14:04:52;;;;;;;8.90;4.18;;;;;;;;;;5011063;28;20029;-69
2021/09/01 14:07:56;;;;;;;9.15;4.07;;;;;;;;;;5010418;28;20038;-65
2021/09/01 14:11:00;;;;;;;6.60;3.88;;;;;;;;;;5011214;28;20673;-66
2021/09/01 14:14:05;;;;;;;14.25;4.38;;;;;;;;;;5011143;28;20038;-66
2021/09/01 14:17:09;;;;;;;5.78;3.65;;;;;;;;;;5011090;28;20048;-66
2021/09/01 14:20:13;;;;;;;11.27;5.40;;;;;;;;;;5010814;28;20038;-65
2021/09/01 14:23:18;;;;;;;14.50;6.00;;;;;;;;;;5011338;28;20063;-65
2021/09/01 14:26:22;;;;;;;7.95;3.92;;;;;;;;;;5010764;28;20508;-65
2021/09/01 14:29:26;;;;;;;7.90;3.67;;;;;;;;;;5010561;28;20042;-65
2021/09/01 14:32:30;;;;;;;6.20;4.00;;;;;;;;;;5010682;28;20042;-65
2021/09/01 14:35:35;;;;;;;8.68;3.95;;;;;;;;;;5013313;28;20379;-65
2021/09/01 14:38:46;;;;;;;9.85;3.72;;;;;;;;;;5014593;28;20034;-65
2021/09/01 14:41:50;;;;;;;9.98;3.88;;;;;;;;;;5014111;28;20041;-65
2021/09/01 14:44:54;;;;;;;11.05;3.42;;;;;;;;;;5013032;28;20034;-65
2021/09/01 14:47:59;;;;;;;10.45;3.92;;;;;;;;;;5012159;28;20059;-65
2021/09/01 14:51:04;;;;;;;7.25;3.75;;;;;;;;;;5012301;28;20041;-65
2021/09/01 14:54:08;;;;;;;8.75;4.47;;;;;;;;;;5013219;28;20054;-66
2021/09/01 14:57:16;;;;;;;12.10;3.78;;;;;;;;;;5013601;28;20050;-66
2021/09/01 15:00:20;;;;;;;8.82;3.75;;;;;;;;;;5013766;28;20053;-65
2021/09/01 15:03:24;;;;;;;5.88;3.70;;;;;;;;;;5013844;28;20034;-65
2021/09/01 15:06:29;;;;;;;7.55;3.88;;;;;;;;;;5014037;28;20057;-65
2021/09/01 15:09:33;;;;;;;12.07;3.80;;;;;;;;;;5013764;28;20042;-66
2021/09/01 15:12:37;;;;;;;14.18;3.72;;;;;;;;;;5013867;28;20053;-66
2021/09/01 15:15:42;;;;;;;10.02;5.00;;;;;;;;;;5013740;28;20048;-65
2021/09/01 15:18:46;;;;;;;11.20;4.10;;;;;;;;;;5012389;28;20040;-64
2021/09/01 15:21:50;;;;;;;8.23;3.55;;;;;;;;;;5013468;28;20052;-64
2021/09/01 15:24:54;;;;;;;7.80;3.40;;;;;;;;;;5013493;28;20038;-64
2021/09/01 15:27:59;;;;;;;7.45;4.18;;;;;;;;;;5013442;28;20046;-64
2021/09/01 15:31:03;;;;;;;10.30;3.72;;;;;;;;;;5013305;28;20077;-64
2021/09/01 15:34:07;;;;;;;8.70;3.50;;;;;;;;;;5013255;28;20512;-64
2021/09/01 15:37:12;;;;;;;8.32;3.90;;;;;;;;;;5012910;28;20576;-67
2021/09/01 15:40:16;;;;;;;10.82;3.45;;;;;;;;;;5012628;28;20037;-66
2021/09/01 15:43:26;;;;;;;7.47;3.67;;;;;;;;;;5013170;28;20053;-66
2021/09/01 15:46:32;;;;;;;11.20;3.58;;;;;;;;;;5012420;28;20038;-65
2021/09/01 15:49:36;;;;;;;12.50;4.70;;;;;;;;;;5012775;28;20049;-66
2021/09/01 15:52:41;;;;;;;8.07;3.50;;;;;;;;;;5012882;28;20037;-66
2021/09/01 15:55:45;;;;;;;10.55;3.60;;;;;;;;;;5012755;28;20038;-66
2021/09/01 15:58:50;;;;;;;11.00;3.78;;;;;;;;;;5012368;28;20041;-66
2021/09/01 16:01:55;;;;;;;21.25;5.05;;;;;;;;;;5012482;28;20044;-64
2021/09/01 16:05:04;;;;;;;9.40;3.40;;;;;;;;;;5012488;28;20036;-65
2021/09/01 16:08:08;;;;;;;16.38;3.50;;;;;;;;;;5012289;28;20050;-64
2021/09/01 16:11:13;;;;;;;14.32;3.90;;;;;;;;;;5011568;28;20044;-67
2021/09/01 16:14:28;;;;;;;7.45;3.22;;;;;;;;;;5012039;28;20049;-65
2021/09/01 16:17:43;;;;;;;7.72;3.15;;;;;;;;;;5012296;28;20045;-65
2021/09/01 16:20:51;;;;;;;7.95;3.55;;;;;;;;;;5011597;28;20033;-64
2021/09/01 16:23:57;;;;;;;9.68;3.20;;;;;;;;;;5011862;28;20625;-64
2021/09/01 16:27:02;;;;;;;13.23;3.47;;;;;;;;;;5011902;28;20378;-64
2021/09/01 16:30:07;;;;;;;18.33;4.05;;;;;;;;;;5011866;28;20057;-64
2021/09/01 16:33:11;;;;;;;9.80;3.60;;;;;;;;;;4999507;28;20045;-64
2021/09/01 16:36:20;;;;;;;7.78;3.05;;;;;;;;;;5011959;28;20046;-64
2021/09/01 16:39:25;;;;;;;11.15;3.33;;;;;;;;;;4999595;28;20034;-64
2021/09/01 16:42:31;;;;;;;10.50;3.20;;;;;;;;;;4999929;28;20052;-64
2021/09/01 16:45:36;;;;;;;10.63;4.35;;;;;;;;;;5011799;28;20041;-62
2021/09/01 16:48:41;;;;;;;13.63;3.95;;;;;;;;;;5011514;28;20056;-64
2021/09/01 16:51:49;;;;;;;6.45;3.92;;;;;;;;;;5011746;28;20048;-64
2021/09/01 16:54:59;;;;;;;7.75;4.82;;;;;;;;;;5011448;28;20038;-64
2021/09/01 16:58:08;;;;;;;8.45;5.75;;;;;;;;;;5010562;28;20477;-65
2021/09/01 17:01:12;;;;;;;12.80;7.60;;;;;;;;;;5011270;28;20041;-65
2021/09/01 17:04:19;;;;;;;18.67;10.43;;;;;;;;;;5011542;28;20049;-66
2021/09/01 17:07:23;;;;;;;22.13;11.30;;;;;;;;;;5011354;28;20060;-65
2021/09/01 17:10:27;;;;;;;19.73;13.35;;;;;;;;;;5011680;28;20060;-65
2021/09/01 17:13:32;;;;;;;21.33;13.80;;;;;;;;;;5011244;28;20469;-65
2021/09/01 17:16:37;;;;;;;26.02;13.02;;;;;;;;;;5011396;28;20045;-65
2021/09/01 17:19:41;;;;;;;18.48;11.27;;;;;;;;;;5011387;28;20061;-65
2021/09/01 17:22:47;;;;;;;21.00;12.57;;;;;;;;;;5010952;28;20409;-66
2021/09/01 17:25:54;;;;;;;21.63;12.70;;;;;;;;;;5010825;28;20041;-65
2021/09/01 17:28:59;;;;;;;19.17;10.85;;;;;;;;;;4998696;28;20053;-65
2021/09/01 17:32:04;;;;;;;23.50;10.32;;;;;;;;;;5011075;28;20040;-65
2021/09/01 17:35:09;;;;;;;19.65;7.78;;;;;;;;;;5010939;28;20049;-65
2021/09/01 17:38:13;;;;;;;18.45;7.35;;;;;;;;;;5010100;28;20045;-65
2021/09/01 17:41:20;;;;;;;11.38;5.90;;;;;;;;;;5010847;28;20049;-65
2021/09/01 17:44:24;;;;;;;18.70;5.20;;;;;;;;;;5010949;28;20393;-65
2021/09/01 17:47:28;;;;;;;12.88;5.60;;;;;;;;;;5010609;28;20041;-65
2021/09/01 17:50:36;;;;;;;10.35;5.30;;;;;;;;;;5011259;28;20045;-64
2021/09/01 17:53:41;;;;;;;13.45;4.97;;;;;;;;;;5011109;28;20508;-65
2021/09/01 17:56:46;;;;;;;8.88;4.97;;;;;;;;;;5010921;28;20053;-65
2021/09/01 17:59:51;;;;;;;16.05;5.63;;;;;;;;;;5010949;28;20044;-66
2021/09/01 18:02:55;;;;;;;14.77;5.60;;;;;;;;;;5010739;28;20053;-66
2021/09/01 18:05:59;;;;;;;12.95;5.40;;;;;;;;;;5010422;28;20410;-65
2021/09/01 18:09:06;;;;;;;8.73;4.82;;;;;;;;;;5000539;28;20057;-65
2021/09/01 18:12:10;;;;;;;8.55;5.07;;;;;;;;;;5013890;28;20038;-65
2021/09/01 18:15:15;;;;;;;9.93;5.38;;;;;;;;;;5014292;28;20042;-65
2021/09/01 18:18:20;;;;;;;9.98;5.53;;;;;;;;;;5014672;28;20038;-65